createdAt,value
2023-04-25T00:00:22.793Z,506.00
2023-04-25T00:01:23.856Z,509.00
2023-04-25T00:02:23.017Z,504.00
2023-04-25T00:03:24.130Z,508.00
2023-04-25T00:04:23.283Z,504.00
2023-04-25T00:05:23.192Z,502.00
2023-04-25T00:06:23.120Z,501.00
2023-04-25T00:07:23.188Z,502.00
2023-04-25T00:08:23.364Z,506.00
2023-04-25T00:09:24.357Z,502.00
2023-04-25T00:10:24.397Z,502.00
2023-04-25T00:11:24.650Z,506.00
2023-04-25T00:12:24.516Z,502.00
2023-04-25T00:13:23.653Z,500.00
2023-04-25T00:14:24.674Z,505.00
2023-04-25T00:15:24.765Z,507.00
2023-04-25T00:16:24.823Z,506.00
2023-04-25T00:17:24.904Z,507.00
2023-04-25T00:18:23.891Z,509.00
2023-04-25T00:19:24.822Z,506.00
2023-04-25T00:20:24.888Z,512.00
2023-04-25T00:21:23.932Z,513.00
2023-04-25T00:22:25.037Z,508.00
2023-04-25T00:23:25.087Z,502.00
2023-04-25T00:24:25.128Z,509.00
2023-04-25T00:25:24.218Z,504.00
2023-04-25T00:26:25.267Z,503.00
2023-04-25T00:27:25.315Z,501.00
2023-04-25T00:28:24.397Z,508.00
2023-04-25T00:29:25.429Z,510.00
2023-04-25T00:30:24.596Z,509.00
2023-04-25T00:31:24.667Z,508.00
2023-04-25T00:32:24.633Z,507.00
2023-04-25T00:33:25.669Z,511.00
2023-04-25T00:34:25.715Z,507.00
2023-04-25T00:35:25.784Z,506.00
2023-04-25T00:36:25.822Z,509.00
2023-04-25T00:37:25.955Z,503.00
2023-04-25T00:38:25.967Z,504.00
2023-04-25T00:39:26.061Z,505.00
2023-04-25T00:40:26.145Z,502.00
2023-04-25T00:41:25.139Z,505.00
2023-04-25T00:42:25.262Z,500.00
2023-04-25T00:43:25.427Z,503.00
2023-04-25T00:44:25.571Z,507.00
2023-04-25T00:45:26.457Z,504.00
2023-04-25T00:46:25.477Z,501.00
2023-04-25T00:47:25.558Z,508.00
2023-04-25T00:48:26.691Z,504.00
2023-04-25T00:49:26.641Z,501.00
2023-04-25T00:50:25.655Z,507.00
2023-04-25T00:51:26.737Z,501.00
2023-04-25T00:52:26.865Z,500.00
2023-04-25T00:53:26.865Z,510.00
2023-04-25T00:54:25.914Z,505.00
2023-04-25T00:55:26.981Z,500.00
2023-04-25T00:56:26.104Z,509.00
2023-04-25T00:57:27.116Z,509.00
2023-04-25T00:58:26.227Z,506.00
2023-04-25T00:59:26.267Z,504.00
2023-04-25T01:00:27.402Z,507.00
2023-04-25T01:01:26.511Z,511.00
2023-04-25T01:02:26.495Z,503.00
2023-04-25T01:03:27.716Z,505.00
2023-04-25T01:04:26.658Z,503.00
2023-04-25T01:05:27.695Z,505.00
2023-04-25T01:06:27.701Z,505.00
2023-04-25T01:07:27.845Z,510.00
2023-04-25T01:08:27.881Z,507.00
2023-04-25T01:09:27.101Z,503.00
2023-04-25T01:10:26.966Z,508.00
2023-04-25T01:11:27.062Z,500.00
2023-04-25T01:12:28.213Z,500.00
2023-04-25T01:13:27.143Z,504.00
2023-04-25T01:14:27.152Z,506.00
2023-04-25T01:15:27.204Z,506.00
2023-04-25T01:16:27.333Z,505.00
2023-04-25T01:17:27.418Z,508.00
2023-04-25T01:18:28.421Z,500.00
2023-04-25T01:19:28.563Z,513.00
2023-04-25T01:20:28.508Z,514.00
2023-04-25T01:21:27.512Z,506.00
2023-04-25T01:22:28.561Z,509.00
2023-04-25T01:23:28.633Z,508.00
2023-04-25T01:24:27.760Z,508.00
2023-04-25T01:25:28.736Z,504.00
2023-04-25T01:26:27.839Z,504.00
2023-04-25T01:27:27.903Z,503.00
2023-04-25T01:28:28.906Z,510.00
2023-04-25T01:29:28.962Z,504.00
2023-04-25T01:30:28.078Z,502.00
2023-04-25T01:31:29.189Z,509.00
2023-04-25T01:32:29.190Z,500.00
2023-04-25T01:33:28.171Z,510.00
2023-04-25T01:34:29.627Z,500.00
2023-04-25T01:35:28.285Z,505.00
2023-04-25T01:36:29.297Z,507.00
2023-04-25T01:37:28.418Z,502.00
2023-04-25T01:38:28.413Z,508.00
2023-04-25T01:39:29.444Z,505.00
2023-04-25T01:40:28.498Z,506.00
2023-04-25T01:41:29.582Z,508.00
2023-04-25T01:42:29.576Z,507.00
2023-04-25T01:43:28.798Z,510.00
2023-04-25T01:44:28.692Z,506.00
2023-04-25T01:45:29.735Z,509.00
2023-04-25T01:46:28.894Z,506.00
2023-04-25T01:48:28.903Z,501.00
2023-04-25T01:49:29.981Z,504.00
2023-04-25T01:50:29.074Z,507.00
2023-04-25T01:51:29.126Z,503.00
2023-04-25T01:52:30.175Z,507.00
2023-04-25T01:53:29.310Z,504.00
2023-04-25T01:54:29.283Z,504.00
2023-04-25T01:55:29.285Z,504.00
2023-04-25T01:56:30.530Z,500.00
2023-04-25T01:57:29.423Z,503.00
2023-04-25T01:58:30.611Z,504.00
2023-04-25T01:59:30.671Z,508.00
2023-04-25T02:00:30.672Z,509.00
2023-04-25T02:01:30.878Z,500.00
2023-04-25T02:02:29.969Z,510.00
2023-04-25T02:03:31.039Z,508.00
2023-04-25T02:04:30.074Z,501.00
2023-04-25T02:05:29.908Z,505.00
2023-04-25T02:06:30.007Z,509.00
2023-04-25T02:07:31.060Z,508.00
2023-04-25T02:08:31.131Z,502.00
2023-04-25T02:09:31.142Z,505.00
2023-04-25T02:10:30.185Z,505.00
2023-04-25T02:11:30.266Z,511.00
2023-04-25T02:12:30.295Z,505.00
2023-04-25T02:13:31.354Z,506.00
2023-04-25T02:14:30.455Z,509.00
2023-04-25T02:15:31.500Z,504.00
2023-04-25T02:16:30.626Z,509.00
2023-04-25T02:17:30.544Z,512.00
2023-04-25T02:18:30.608Z,500.00
2023-04-25T02:19:30.650Z,511.00
2023-04-25T02:20:31.679Z,508.00
2023-04-25T02:21:31.738Z,512.00
2023-04-25T02:22:31.849Z,511.00
2023-04-25T02:23:30.874Z,502.00
2023-04-25T02:24:31.087Z,506.00
2023-04-25T02:25:32.078Z,502.00
2023-04-25T02:26:31.194Z,509.00
2023-04-25T02:27:32.104Z,503.00
2023-04-25T02:28:32.150Z,503.00
2023-04-25T02:29:32.305Z,512.00
2023-04-25T02:30:32.341Z,508.00
2023-04-25T02:31:32.432Z,507.00
2023-04-25T02:32:32.551Z,506.00
2023-04-25T02:33:32.522Z,507.00
2023-04-25T02:34:31.560Z,509.00
2023-04-25T02:35:32.638Z,510.00
2023-04-25T02:36:32.694Z,505.00
2023-04-25T02:37:32.781Z,507.00
2023-04-25T02:38:32.815Z,502.00
2023-04-25T02:39:32.867Z,506.00
2023-04-25T02:40:32.895Z,505.00
2023-04-25T02:41:32.960Z,503.00
2023-04-25T02:42:33.143Z,505.00
2023-04-25T02:43:32.069Z,508.00
2023-04-25T02:44:33.087Z,508.00
2023-04-25T02:45:33.207Z,505.00
2023-04-25T02:47:33.332Z,506.00
2023-04-25T02:48:33.164Z,507.00
2023-04-25T02:49:33.236Z,508.00
2023-04-25T02:50:33.188Z,508.00
2023-04-25T02:51:32.130Z,508.00
2023-04-25T02:52:33.105Z,508.00
2023-04-25T02:53:32.106Z,502.00
2023-04-25T02:54:32.090Z,506.00
2023-04-25T02:55:33.203Z,508.00
2023-04-25T02:56:33.107Z,504.00
2023-04-25T02:57:32.199Z,506.00
2023-04-25T02:58:33.088Z,507.00
2023-04-25T02:59:33.076Z,510.00
2023-04-25T03:00:32.157Z,509.00
2023-04-25T03:01:33.117Z,503.00
2023-04-25T03:02:32.208Z,508.00
2023-04-25T03:03:33.074Z,507.00
2023-04-25T03:04:32.050Z,508.00
2023-04-25T03:05:33.077Z,508.00
2023-04-25T03:06:33.010Z,503.00
2023-04-25T03:07:31.995Z,504.00
2023-04-25T03:08:33.003Z,509.00
2023-04-25T03:09:32.996Z,500.00
2023-04-25T03:10:31.999Z,510.00
2023-04-25T03:11:33.107Z,507.00
2023-04-25T03:12:32.112Z,500.00
2023-04-25T03:13:32.197Z,507.00
2023-04-25T03:14:33.198Z,501.00
2023-04-25T03:15:33.381Z,501.00
2023-04-25T03:16:33.366Z,510.00
2023-04-25T03:17:33.438Z,510.00
2023-04-25T03:18:33.406Z,505.00
2023-04-25T03:19:33.468Z,507.00
2023-04-25T03:20:33.508Z,508.00
2023-04-25T03:21:33.589Z,504.00
2023-04-25T03:22:33.605Z,512.00
2023-04-25T03:23:32.604Z,510.00
2023-04-25T03:24:32.664Z,507.00
2023-04-25T03:25:32.654Z,510.00
2023-04-25T03:26:32.672Z,509.00
2023-04-25T03:27:33.713Z,509.00
2023-04-25T03:28:33.748Z,505.00
2023-04-25T03:29:33.731Z,504.00
2023-04-25T03:30:33.775Z,510.00
2023-04-25T03:31:33.871Z,508.00
2023-04-25T03:32:32.892Z,512.00
2023-04-25T03:33:32.889Z,508.00
2023-04-25T03:34:32.963Z,504.00
2023-04-25T03:35:33.005Z,512.00
2023-04-25T03:36:34.181Z,512.00
2023-04-25T03:37:34.118Z,507.00
2023-04-25T03:38:34.220Z,507.00
2023-04-25T03:39:34.240Z,502.00
2023-04-25T03:40:34.334Z,506.00
2023-04-25T03:41:34.360Z,503.00
2023-04-25T03:42:34.453Z,504.00
2023-04-25T03:43:34.467Z,501.00
2023-04-25T03:44:33.466Z,500.00
2023-04-25T03:45:33.624Z,505.00
2023-04-25T03:46:33.615Z,502.00
2023-04-25T03:47:34.622Z,508.00
2023-04-25T03:48:34.636Z,504.00
2023-04-25T03:49:33.652Z,503.00
2023-04-25T03:50:34.742Z,504.00
2023-04-25T03:51:33.676Z,501.00
2023-04-25T03:52:34.691Z,503.00
2023-04-25T03:53:34.789Z,504.00
2023-04-25T03:54:34.779Z,507.00
2023-04-25T03:55:34.755Z,505.00
2023-04-25T03:56:33.739Z,506.00
2023-04-25T03:57:33.725Z,505.00
2023-04-25T03:58:34.779Z,508.00
2023-04-25T03:59:34.826Z,505.00
2023-04-25T04:00:34.808Z,507.00
2023-04-25T04:01:34.735Z,509.00
2023-04-25T04:02:35.009Z,508.00
2023-04-25T04:03:34.912Z,504.00
2023-04-25T04:04:35.071Z,504.00
2023-04-25T04:05:34.970Z,508.00
2023-04-25T04:06:34.827Z,510.00
2023-04-25T04:07:34.799Z,505.00
2023-04-25T04:08:33.760Z,510.00
2023-04-25T04:09:34.790Z,508.00
2023-04-25T04:10:33.916Z,508.00
2023-04-25T04:11:34.810Z,502.00
2023-04-25T04:12:34.910Z,506.00
2023-04-25T04:13:34.830Z,509.00
2023-04-25T04:14:34.844Z,507.00
2023-04-25T04:15:34.955Z,500.00
2023-04-25T04:16:34.625Z,502.00
2023-04-25T04:17:33.904Z,505.00
2023-04-25T04:18:33.906Z,509.00
2023-04-25T04:19:34.898Z,510.00
2023-04-25T04:20:33.960Z,504.00
2023-04-25T04:21:33.954Z,505.00
2023-04-25T04:22:34.940Z,502.00
2023-04-25T04:23:34.954Z,515.00
2023-04-25T04:24:33.973Z,504.00
2023-04-25T04:25:35.253Z,506.00
2023-04-25T04:26:34.032Z,501.00
2023-04-25T04:27:35.036Z,507.00
2023-04-25T04:28:34.042Z,512.00
2023-04-25T04:29:35.086Z,504.00
2023-04-25T04:30:35.035Z,505.00
2023-04-25T04:31:35.166Z,502.00
2023-04-25T04:32:35.013Z,506.00
2023-04-25T04:33:34.101Z,501.00
2023-04-25T04:34:35.035Z,510.00
2023-04-25T04:35:34.041Z,507.00
2023-04-25T04:36:34.003Z,506.00
2023-04-25T04:37:35.038Z,500.00
2023-04-25T04:38:34.065Z,509.00
2023-04-25T04:39:34.076Z,509.00
2023-04-25T04:40:34.103Z,505.00
2023-04-25T04:41:34.150Z,507.00
2023-04-25T04:42:34.140Z,504.00
2023-04-25T04:43:34.196Z,512.00
2023-04-25T04:44:34.185Z,506.00
2023-04-25T04:45:35.218Z,504.00
2023-04-25T04:46:35.322Z,508.00
2023-04-25T04:47:35.393Z,506.00
2023-04-25T04:48:35.448Z,506.00
2023-04-25T04:49:35.484Z,505.00
2023-04-25T04:50:35.451Z,507.00
2023-04-25T04:51:35.548Z,508.00
2023-04-25T04:52:35.602Z,506.00
2023-04-25T04:53:35.672Z,504.00
2023-04-25T04:54:35.690Z,503.00
2023-04-25T04:55:35.751Z,500.00
2023-04-25T04:56:35.851Z,506.00
2023-04-25T04:57:35.941Z,504.00
2023-04-25T04:58:35.922Z,511.00
2023-04-25T04:59:36.026Z,505.00
2023-04-25T05:00:36.126Z,502.00
2023-04-25T05:01:36.134Z,504.00
2023-04-25T05:02:35.437Z,502.00
2023-04-25T05:03:36.376Z,505.00
2023-04-25T05:04:36.408Z,505.00
2023-04-25T05:05:36.406Z,507.00
2023-04-25T05:06:35.446Z,509.00
2023-04-25T05:07:36.527Z,513.00
2023-04-25T05:08:36.546Z,509.00
2023-04-25T05:09:35.724Z,505.00
2023-04-25T05:10:36.684Z,506.00
2023-04-25T05:11:35.727Z,510.00
2023-04-25T05:12:36.974Z,508.00
2023-04-25T05:13:36.861Z,505.00
2023-04-25T05:14:36.892Z,511.00
2023-04-25T05:15:36.947Z,505.00
2023-04-25T05:16:37.088Z,512.00
2023-04-25T05:17:37.154Z,514.00
2023-04-25T05:18:40.189Z,515.00
2023-04-25T05:19:38.018Z,515.00
2023-04-25T05:20:37.446Z,515.00
2023-04-25T05:22:55.195Z,500.00
2023-04-25T05:23:56.176Z,500.00
2023-04-25T05:24:56.413Z,500.00
2023-04-25T05:25:55.154Z,500.00
2023-04-25T05:26:56.164Z,500.00
2023-04-25T05:27:55.183Z,510.00
2023-04-25T05:28:56.146Z,507.00
2023-04-25T05:29:55.114Z,515.00
2023-04-25T05:30:56.112Z,512.00
2023-04-25T05:31:56.155Z,502.00
2023-04-25T05:32:56.138Z,509.00
2023-04-25T05:33:56.128Z,516.00
2023-04-25T05:34:56.112Z,516.00
2023-04-25T05:35:55.083Z,511.00
2023-04-25T05:36:55.080Z,519.00
2023-04-25T05:37:56.109Z,520.00
2023-04-25T05:38:56.051Z,517.00
2023-04-25T05:39:56.062Z,522.00
2023-04-25T05:40:55.033Z,524.00
2023-04-25T05:41:56.036Z,532.00
2023-04-25T05:42:56.028Z,542.00
2023-04-25T05:43:57.942Z,549.00
2023-04-25T05:44:56.021Z,563.00
2023-04-25T05:45:55.069Z,570.00
2023-04-25T05:46:55.006Z,571.00
2023-04-25T05:47:55.033Z,581.00
2023-04-25T05:48:55.977Z,576.00
2023-04-25T05:49:55.999Z,579.00
2023-04-25T05:50:55.980Z,587.00
2023-04-25T05:51:55.991Z,591.00
2023-04-25T05:52:54.966Z,587.00
2023-04-25T05:53:55.966Z,590.00
2023-04-25T05:54:55.953Z,599.00
2023-04-25T05:55:55.959Z,594.00
2023-04-25T05:56:55.961Z,613.00
2023-04-25T05:57:55.952Z,602.00
2023-04-25T05:58:55.920Z,605.00
2023-04-25T05:59:55.919Z,601.00
2023-04-25T06:00:54.935Z,618.00
2023-04-25T06:01:56.418Z,625.00
2023-04-25T06:02:56.047Z,632.00
2023-04-25T06:03:56.329Z,638.00
2023-04-25T06:04:56.094Z,648.00
2023-04-25T06:05:55.968Z,657.00
2023-04-25T06:06:54.875Z,649.00
2023-04-25T06:07:55.872Z,690.00
2023-04-25T06:08:54.850Z,726.00
2023-04-25T06:09:55.844Z,743.00
2023-04-25T06:10:54.872Z,777.00
2023-04-25T06:11:55.841Z,762.00
2023-04-25T06:12:55.880Z,812.00
2023-04-25T06:13:55.823Z,857.00
2023-04-25T06:14:55.801Z,818.00
2023-04-25T06:15:55.898Z,823.00
2023-04-25T06:16:54.845Z,854.00
2023-04-25T06:17:55.904Z,841.00
2023-04-25T06:18:55.788Z,861.00
2023-04-25T06:19:55.788Z,860.00
2023-04-25T06:20:54.795Z,841.00
2023-04-25T06:21:55.847Z,845.00
2023-04-25T06:22:55.750Z,868.00
2023-04-25T06:23:55.738Z,843.00
2023-04-25T06:24:55.738Z,883.00
2023-04-25T06:25:54.748Z,870.00
2023-04-25T06:26:55.739Z,824.00
2023-04-25T06:27:54.715Z,824.00
2023-04-25T06:28:55.719Z,860.00
2023-04-25T06:29:54.707Z,835.00
2023-04-25T06:30:55.724Z,872.00
2023-04-25T06:31:55.701Z,870.00
2023-04-25T06:32:54.711Z,867.00
2023-04-25T06:33:54.688Z,880.00
2023-04-25T06:34:55.724Z,894.00
2023-04-25T06:35:54.705Z,943.00
2023-04-25T06:36:55.691Z,986.00
2023-04-25T06:37:55.753Z,1017.00
2023-04-25T06:38:54.740Z,1030.00
2023-04-25T06:39:55.785Z,1040.00
2023-04-25T06:40:55.863Z,1043.00
2023-04-25T06:41:55.918Z,1048.00
2023-04-25T06:42:54.941Z,1074.00
2023-04-25T06:43:54.994Z,1094.00
2023-04-25T06:44:56.048Z,1108.00
2023-04-25T06:45:55.083Z,1125.00
2023-04-25T06:46:56.203Z,1156.00
2023-04-25T06:47:56.244Z,1169.00
2023-04-25T06:48:55.228Z,1186.00
2023-04-25T06:49:56.289Z,1223.00
2023-04-25T06:50:55.331Z,1243.00
2023-04-25T06:51:55.431Z,1275.00
2023-04-25T06:52:56.385Z,1312.00
2023-04-25T06:53:56.449Z,1312.00
2023-04-25T06:54:55.459Z,1334.00
2023-04-25T06:55:55.519Z,1229.00
2023-04-25T06:56:56.905Z,1234.00
2023-04-25T06:57:55.629Z,1282.00
2023-04-25T06:58:55.691Z,1278.00
2023-04-25T06:59:57.334Z,1272.00
2023-04-25T07:00:56.807Z,1260.00
2023-04-25T07:01:56.901Z,1234.00
2023-04-25T07:02:56.023Z,1206.00
2023-04-25T07:03:57.116Z,1179.00
2023-04-25T07:04:56.199Z,1174.00
2023-04-25T07:05:56.075Z,1155.00
2023-04-25T07:06:57.063Z,1080.00
2023-04-25T07:07:57.071Z,993.00
2023-04-25T07:08:57.051Z,935.00
2023-04-25T07:09:57.071Z,862.00
2023-04-25T07:10:57.048Z,889.00
2023-04-25T07:11:56.072Z,790.00
2023-04-25T07:12:57.056Z,770.00
2023-04-25T07:13:57.049Z,708.00
2023-04-25T07:14:57.058Z,653.00
2023-04-25T07:15:57.418Z,639.00
2023-04-25T07:16:56.183Z,613.00
2023-04-25T07:17:57.092Z,599.00
2023-04-25T07:18:56.104Z,580.00
2023-04-25T07:19:57.081Z,556.00
2023-04-25T07:20:56.091Z,540.00
2023-04-25T07:21:56.123Z,531.00
2023-04-25T07:22:56.139Z,512.00
2023-04-25T07:23:57.133Z,526.00
2023-04-25T07:24:57.168Z,530.00
2023-04-25T07:25:57.202Z,515.00
2023-04-25T07:26:57.233Z,506.00
2023-04-25T07:27:57.251Z,500.00
2023-04-25T07:28:57.247Z,507.00
2023-04-25T07:29:57.279Z,499.00
2023-04-25T07:30:57.326Z,517.00
2023-04-25T07:31:57.349Z,500.00
2023-04-25T07:32:57.364Z,520.00
2023-04-25T07:33:56.356Z,507.00
2023-04-25T07:34:57.366Z,507.00
2023-04-25T07:35:57.372Z,526.00
2023-04-25T07:36:57.416Z,508.00
2023-04-25T07:37:57.420Z,500.00
2023-04-25T07:38:57.451Z,514.00
2023-04-25T07:39:57.485Z,528.00
2023-04-25T07:40:57.504Z,532.00
2023-04-25T07:41:57.538Z,505.00
2023-04-25T07:42:57.540Z,512.00
2023-04-25T07:43:57.560Z,517.00
2023-04-25T07:44:57.570Z,512.00
2023-04-25T07:45:56.675Z,514.00
2023-04-25T07:46:57.635Z,496.00
2023-04-25T07:47:58.001Z,514.00
2023-04-25T07:48:56.685Z,400.00
2023-04-25T07:49:57.714Z,400.00
2023-04-25T07:50:57.788Z,400.00
2023-04-25T07:51:56.839Z,400.00
2023-04-25T07:52:56.922Z,505.00
2023-04-25T07:53:57.903Z,544.00
2023-04-25T07:54:57.879Z,592.00
2023-04-25T07:55:57.912Z,623.00
2023-04-25T07:56:56.957Z,672.00
2023-04-25T07:57:58.040Z,741.00
2023-04-25T07:58:57.074Z,808.00
2023-04-25T07:59:57.136Z,844.00
2023-04-25T08:00:57.182Z,900.00
2023-04-25T08:01:57.215Z,942.00
2023-04-25T08:02:58.367Z,985.00
2023-04-25T08:03:58.557Z,1083.00
2023-04-25T08:04:57.548Z,1136.00
2023-04-25T08:05:57.436Z,1150.00
2023-04-25T08:06:57.309Z,1186.00
2023-04-25T08:07:58.329Z,1236.00
2023-04-25T08:08:58.346Z,1304.00
2023-04-25T08:09:57.338Z,1335.00
2023-04-25T08:10:58.337Z,1369.00
2023-04-25T08:11:58.326Z,1392.00
2023-04-25T08:12:58.342Z,1427.00
2023-04-25T08:13:58.365Z,1546.00
2023-04-25T08:14:58.379Z,1576.00
2023-04-25T08:15:58.431Z,1585.00
2023-04-25T08:16:58.486Z,1618.00
2023-04-25T08:17:58.578Z,1661.00
2023-04-25T08:18:58.624Z,1683.00
2023-04-25T08:19:58.662Z,1732.00
2023-04-25T08:20:58.733Z,1759.00
2023-04-25T08:21:58.791Z,1777.00
2023-04-25T08:22:58.870Z,1799.00
2023-04-25T08:23:58.925Z,1802.00
2023-04-25T08:24:58.984Z,1826.00
2023-04-25T08:25:58.045Z,1830.00
2023-04-25T08:26:58.115Z,1859.00
2023-04-25T08:27:58.190Z,1861.00
2023-04-25T08:28:59.190Z,1875.00
2023-04-25T08:29:59.300Z,1873.00
2023-04-25T08:30:58.314Z,1904.00
2023-04-25T08:31:59.344Z,1946.00
2023-04-25T08:32:59.439Z,1966.00
2023-04-25T08:33:59.433Z,1975.00
2023-04-25T08:34:58.501Z,2000.00
2023-04-25T08:35:58.567Z,2023.00
2023-04-25T08:36:58.583Z,2014.00
2023-04-25T08:37:58.642Z,2078.00
2023-04-25T08:38:59.669Z,2077.00
2023-04-25T08:39:59.734Z,2129.00
2023-04-25T08:40:59.809Z,2115.00
2023-04-25T08:41:59.810Z,2160.00
2023-04-25T08:42:59.961Z,2166.00
2023-04-25T08:43:59.884Z,2172.00
2023-04-25T08:44:59.907Z,2178.00
2023-04-25T08:45:58.953Z,2179.00
2023-04-25T08:47:00.045Z,2189.00
2023-04-25T08:47:59.030Z,2217.00
2023-04-25T08:49:00.061Z,2204.00
2023-04-25T08:49:59.165Z,2208.00
2023-04-25T08:51:00.200Z,2203.00
2023-04-25T08:51:59.316Z,2217.00
2023-04-25T08:53:00.547Z,2223.00
2023-04-25T08:54:04.933Z,1775.00
2023-04-25T08:55:00.361Z,1144.00
2023-04-25T08:56:00.319Z,757.00
2023-04-25T08:56:59.303Z,707.00
2023-04-25T08:58:00.559Z,561.00
2023-04-25T08:58:59.304Z,432.00
2023-04-25T08:59:59.284Z,522.00
2023-04-25T09:00:59.332Z,590.00
2023-04-25T09:01:59.383Z,687.00
2023-04-25T09:03:00.385Z,826.00
2023-04-25T09:04:00.409Z,941.00
2023-04-25T09:04:59.256Z,1068.00
2023-04-25T09:06:00.238Z,1179.00
2023-04-25T09:06:59.241Z,1238.00
2023-04-25T09:07:59.230Z,1340.00
2023-04-25T09:09:00.259Z,1346.00
2023-04-25T09:09:59.222Z,1393.00
2023-04-25T09:11:00.381Z,1447.00
2023-04-25T09:11:59.206Z,1476.00
2023-04-25T09:13:00.214Z,1496.00
2023-04-25T09:14:00.214Z,1519.00
2023-04-25T09:15:00.187Z,1547.00
2023-04-25T09:16:00.253Z,1563.00
2023-04-25T09:17:00.357Z,1535.00
2023-04-25T09:17:59.235Z,1522.00
2023-04-25T09:19:00.162Z,1488.00
2023-04-25T09:20:00.167Z,1494.00
2023-04-25T09:21:02.049Z,1487.00
2023-04-25T09:22:00.191Z,1488.00
2023-04-25T09:23:00.157Z,1494.00
2023-04-25T09:24:00.137Z,1478.00
2023-04-25T09:25:00.176Z,1505.00
2023-04-25T09:26:00.127Z,1528.00
2023-04-25T09:27:00.135Z,1524.00
2023-04-25T09:28:00.114Z,1517.00
2023-04-25T09:29:00.130Z,1490.00
2023-04-25T09:30:00.093Z,1465.00
2023-04-25T09:30:59.098Z,1443.00
2023-04-25T09:32:00.174Z,1448.00
2023-04-25T09:33:00.099Z,1442.00
2023-04-25T09:34:00.273Z,1462.00
2023-04-25T09:35:00.043Z,1468.00
2023-04-25T09:36:00.066Z,1460.00
2023-04-25T09:37:00.017Z,1428.00
2023-04-25T09:38:00.029Z,1393.00
2023-04-25T09:39:00.034Z,1353.00
2023-04-25T09:40:00.001Z,1404.00
2023-04-25T09:40:59.020Z,1412.00
2023-04-25T09:41:58.979Z,1434.00
2023-04-25T09:42:59.988Z,1419.00
2023-04-25T09:43:59.159Z,1389.00
2023-04-25T09:44:58.957Z,1406.00
2023-04-25T09:45:59.308Z,1367.00
2023-04-25T09:47:00.004Z,1077.00
2023-04-25T09:48:00.012Z,896.00
2023-04-25T09:48:59.920Z,841.00
2023-04-25T09:50:00.655Z,596.00
2023-04-25T09:50:59.931Z,515.00
2023-04-25T09:52:00.187Z,505.00
2023-04-25T09:52:59.964Z,419.00
2023-04-25T09:53:59.936Z,465.00
2023-04-25T09:54:59.915Z,566.00
2023-04-25T09:55:59.968Z,658.00
2023-04-25T09:56:59.982Z,710.00
2023-04-25T09:58:00.110Z,765.00
2023-04-25T09:59:00.692Z,849.00
2023-04-25T10:00:00.254Z,955.00
2023-04-25T10:00:59.122Z,1052.00
2023-04-25T10:01:59.135Z,1158.00
2023-04-25T10:03:00.255Z,1252.00
2023-04-25T10:03:59.458Z,1322.00
2023-04-25T10:04:59.282Z,1399.00
2023-04-25T10:06:00.374Z,1468.00
2023-04-25T10:07:01.762Z,1521.00
2023-04-25T10:08:00.523Z,1580.00
2023-04-25T10:08:59.993Z,1623.00
2023-04-25T10:09:59.483Z,1671.00
2023-04-25T10:11:00.624Z,1729.00
2023-04-25T10:11:59.467Z,1779.00
2023-04-25T10:13:03.201Z,1835.00
2023-04-25T10:13:59.555Z,1899.00
2023-04-25T10:15:00.474Z,1931.00
2023-04-25T10:16:00.533Z,1955.00
2023-04-25T10:16:59.593Z,2002.00
2023-04-25T10:18:00.450Z,2063.00
2023-04-25T10:19:02.356Z,2084.00
2023-04-25T10:20:00.453Z,2087.00
2023-04-25T10:21:00.588Z,2100.00
2023-04-25T10:22:00.689Z,2134.00
2023-04-25T10:23:00.720Z,2222.00
2023-04-25T10:23:59.550Z,2348.00
2023-04-25T10:25:00.464Z,2395.00
2023-04-25T10:26:01.273Z,2422.00
2023-04-25T10:26:59.383Z,2473.00
2023-04-25T10:28:00.505Z,2505.00
2023-04-25T10:28:59.524Z,2521.00
2023-04-25T10:30:00.469Z,2576.00
2023-04-25T10:31:01.081Z,2570.00
2023-04-25T10:32:00.686Z,2604.00
2023-04-25T10:33:00.704Z,2631.00
2023-04-25T10:33:59.626Z,2654.00
2023-04-25T10:35:00.763Z,2682.00
2023-04-25T10:36:02.302Z,2698.00
2023-04-25T10:37:01.479Z,2718.00
2023-04-25T10:38:00.252Z,2721.00
2023-04-25T10:39:00.841Z,2729.00
2023-04-25T10:39:59.568Z,2753.00
2023-04-25T10:41:01.089Z,2789.00
2023-04-25T10:41:59.538Z,2849.00
2023-04-25T10:43:00.802Z,2857.00
2023-04-25T10:44:01.138Z,2859.00
2023-04-25T10:44:59.524Z,2879.00
2023-04-25T10:45:59.513Z,2877.00
2023-04-25T10:46:59.558Z,2873.00
2023-04-25T10:48:00.688Z,2890.00
2023-04-25T10:48:59.730Z,2886.00
2023-04-25T10:50:00.672Z,2896.00
2023-04-25T10:51:00.547Z,2895.00
2023-04-25T10:52:00.593Z,2895.00
2023-04-25T10:53:00.635Z,2888.00
2023-04-25T10:54:00.723Z,2899.00
2023-04-25T10:54:59.716Z,2879.00
2023-04-25T10:56:00.736Z,2888.00
2023-04-25T10:56:59.717Z,2876.00
2023-04-25T10:58:00.748Z,2880.00
2023-04-25T10:58:59.924Z,2873.00
2023-04-25T11:00:00.710Z,2862.00
2023-04-25T11:00:59.724Z,2869.00
2023-04-25T11:01:59.877Z,2847.00
2023-04-25T11:02:59.903Z,2857.00
2023-04-25T11:04:00.111Z,2853.00
2023-04-25T11:05:00.738Z,2852.00
2023-04-25T11:06:00.750Z,2847.00
2023-04-25T11:08:07.146Z,2840.00
2023-04-25T11:09:00.768Z,2841.00
2023-04-25T11:10:00.823Z,2841.00
2023-04-25T11:10:59.792Z,2824.00
2023-04-25T11:12:00.758Z,2814.00
2023-04-25T11:13:00.743Z,2830.00
2023-04-25T11:13:59.743Z,2827.00
2023-04-25T11:15:00.762Z,2810.00
2023-04-25T11:16:07.483Z,2806.00
2023-04-25T11:17:01.320Z,2806.00
2023-04-25T11:18:00.775Z,2754.00
2023-04-25T11:19:00.709Z,2516.00
2023-04-25T11:19:59.717Z,2335.00
2023-04-25T11:20:59.726Z,2232.00
2023-04-25T11:22:00.689Z,2113.00
2023-04-25T11:23:00.699Z,2006.00
2023-04-25T11:23:59.679Z,1819.00
2023-04-25T11:24:59.662Z,1759.00
2023-04-25T11:26:00.797Z,1792.00
2023-04-25T11:26:59.669Z,1841.00
2023-04-25T11:27:59.671Z,1711.00
2023-04-25T11:28:59.662Z,1390.00
2023-04-25T11:30:00.607Z,1423.00
2023-04-25T11:31:00.622Z,1231.00
2023-04-25T11:31:59.737Z,955.00
2023-04-25T11:32:59.693Z,811.00
2023-04-25T11:33:59.621Z,894.00
2023-04-25T11:35:00.602Z,717.00
2023-04-25T11:36:00.617Z,792.00
2023-04-25T11:37:00.665Z,614.00
2023-04-25T11:38:00.702Z,836.00
2023-04-25T11:39:01.153Z,1000.00
2023-04-25T11:39:59.796Z,685.00
2023-04-25T11:41:01.071Z,657.00
2023-04-25T11:42:01.227Z,656.00
2023-04-25T11:43:00.895Z,557.00
2023-04-25T11:43:59.932Z,492.00
2023-04-25T11:44:59.988Z,554.00
2023-04-25T11:46:00.022Z,500.00
2023-04-25T11:47:01.093Z,565.00
2023-04-25T11:48:00.211Z,678.00
2023-04-25T11:49:01.144Z,731.00
2023-04-25T11:50:01.160Z,814.00
2023-04-25T11:51:01.197Z,658.00
2023-04-25T11:52:00.250Z,652.00
2023-04-25T11:53:00.349Z,716.00
2023-04-25T11:54:00.340Z,703.00
2023-04-25T11:55:00.345Z,760.00
2023-04-25T11:56:00.386Z,752.00
2023-04-25T11:57:01.435Z,740.00
2023-04-25T11:58:00.449Z,757.00
2023-04-25T11:59:00.596Z,783.00
2023-04-25T12:00:01.505Z,727.00
2023-04-25T12:01:00.587Z,724.00
2023-04-25T12:02:01.632Z,731.00
2023-04-25T12:03:00.798Z,764.00
2023-04-25T12:04:00.856Z,693.00
2023-04-25T12:05:15.939Z,792.00
2023-04-25T12:06:01.861Z,793.00
2023-04-25T12:07:00.768Z,793.00
2023-04-25T12:08:01.694Z,789.00
2023-04-25T12:09:01.690Z,777.00
2023-04-25T12:10:00.694Z,771.00
2023-04-25T12:11:01.693Z,728.00
2023-04-25T12:12:01.693Z,732.00
2023-04-25T12:13:00.650Z,713.00
2023-04-25T12:14:00.704Z,683.00
2023-04-25T12:15:01.641Z,648.00
2023-04-25T12:16:01.691Z,658.00
2023-04-25T12:17:01.633Z,645.00
2023-04-25T12:18:01.668Z,600.00
2023-04-25T12:19:01.624Z,616.00
2023-04-25T12:20:00.621Z,585.00
2023-04-25T12:21:01.614Z,609.00
2023-04-25T12:22:01.594Z,654.00
2023-04-25T12:23:00.592Z,656.00
2023-04-25T12:24:00.574Z,690.00
2023-04-25T12:25:00.569Z,726.00
2023-04-25T12:26:01.568Z,747.00